createdAt,value
2022-09-05T00:00:04.992Z,73.5
2022-09-05T00:00:25.047Z,73.38
2022-09-05T00:00:45.077Z,73.32
2022-09-05T00:01:05.171Z,73.29
2022-09-05T00:01:27.427Z,73.26
2022-09-05T00:01:45.313Z,73.23
2022-09-05T00:02:05.393Z,73.28
2022-09-05T00:02:25.564Z,73.29
2022-09-05T00:02:49.528Z,73.22
2022-09-05T00:03:05.677Z,73.14
2022-09-05T00:03:26.139Z,72.99
2022-09-05T00:03:45.843Z,72.97
2022-09-05T00:04:24.748Z,72.88
2022-09-05T00:04:26.014Z,72.82
2022-09-05T00:04:45.853Z,72.74
2022-09-05T00:05:05.918Z,72.94
2022-09-05T00:05:26.014Z,73.03
2022-09-05T00:06:01.836Z,73.08
2022-09-05T00:06:06.110Z,73.01
2022-09-05T00:06:26.185Z,72.89
2022-09-05T00:06:46.261Z,72.8
2022-09-05T00:07:06.309Z,72.93
2022-09-05T00:07:36.061Z,72.97
2022-09-05T00:07:59.462Z,72.93
2022-09-05T00:08:06.487Z,72.9
2022-09-05T00:08:26.556Z,72.96
2022-09-05T00:08:46.623Z,72.79
2022-09-05T00:09:06.682Z,72.69
2022-09-05T00:09:27.771Z,72.76
2022-09-05T00:09:46.817Z,72.79
2022-09-05T00:10:06.878Z,72.76
2022-09-05T00:10:26.939Z,72.92
2022-09-05T00:11:39.386Z,72.85
2022-09-05T00:11:41.754Z,72.79
2022-09-05T00:11:43.137Z,72.83
2022-09-05T00:11:47.204Z,72.75
2022-09-05T00:12:07.285Z,72.77
2022-09-05T00:12:27.335Z,72.64
2022-09-05T00:12:47.387Z,72.83
2022-09-05T00:13:08.186Z,72.83
2022-09-05T00:13:27.522Z,72.94
2022-09-05T00:13:47.578Z,73.08
2022-09-05T00:14:07.630Z,72.92
2022-09-05T00:14:55.891Z,72.83
2022-09-05T00:15:14.401Z,72.79
2022-09-05T00:15:16.188Z,72.68
2022-09-05T00:15:27.908Z,72.68
2022-09-05T00:15:48.010Z,72.78
2022-09-05T00:16:08.051Z,72.92
2022-09-05T00:16:30.461Z,72.8
2022-09-05T00:16:48.127Z,72.7
2022-09-05T00:17:08.196Z,72.84
2022-09-05T00:17:43.767Z,72.72
2022-09-05T00:19:09.354Z,72.84
2022-09-05T00:21:48.213Z,72.92
2022-09-05T00:22:27.416Z,72.95
2022-09-05T00:23:12.105Z,73.02
2022-09-05T00:24:17.136Z,73
2022-09-05T00:24:17.472Z,73.1
2022-09-05T00:24:21.789Z,72.8
2022-09-05T00:24:22.303Z,72.76
2022-09-05T00:24:22.348Z,72.71
2022-09-05T00:24:22.656Z,72.91
2022-09-05T00:24:25.379Z,72.61
2022-09-05T00:24:26.252Z,72.77
2022-09-05T00:24:29.590Z,72.53
2022-09-05T00:24:30.243Z,72.47
2022-09-05T00:24:30.498Z,72.65
2022-09-05T00:24:31.895Z,72.52
2022-09-05T00:24:33.159Z,72.68
2022-09-05T00:24:34.455Z,72.82
2022-09-05T00:24:37.052Z,72.67
2022-09-05T00:24:37.157Z,72.83
2022-09-05T00:24:51.391Z,72.49
2022-09-05T00:25:07.226Z,72.44
2022-09-05T00:25:31.558Z,72.22
2022-09-05T00:25:49.854Z,72.16
2022-09-05T00:26:09.896Z,72.14
2022-09-05T00:26:29.987Z,72.15
2022-09-05T00:26:50.857Z,72.31
2022-09-05T00:27:10.097Z,72.35
2022-09-05T00:27:30.151Z,72.42
2022-09-05T00:27:50.231Z,72.39
2022-09-05T00:28:26.100Z,72.36
2022-09-05T00:28:30.361Z,72.44
2022-09-05T00:28:50.435Z,72.41
2022-09-05T00:29:10.506Z,72.59
2022-09-05T00:29:42.024Z,72.33
2022-09-05T00:31:05.622Z,72.2
2022-09-05T00:31:05.702Z,72.28
2022-09-05T00:31:06.935Z,72.19
2022-09-05T00:31:08.691Z,72.22
2022-09-05T00:31:53.910Z,71.89
2022-09-05T00:31:54.344Z,72.05
2022-09-05T00:31:56.505Z,72.13
2022-09-05T00:32:11.217Z,72.17
2022-09-05T00:32:31.233Z,72.2
2022-09-05T00:32:51.286Z,72.02
2022-09-05T00:33:16.992Z,72
2022-09-05T00:33:31.606Z,71.93
2022-09-05T00:33:51.361Z,72.37
2022-09-05T00:34:11.420Z,72.48
2022-09-05T00:34:47.141Z,72.18
2022-09-05T00:34:51.580Z,72.24
2022-09-05T00:35:11.613Z,72.45
2022-09-05T00:35:31.678Z,72.46
2022-09-05T00:35:51.754Z,72.43
2022-09-05T00:36:11.788Z,72.38
2022-09-05T00:36:31.870Z,72.27
2022-09-05T00:36:51.936Z,72.36
2022-09-05T00:37:12.461Z,72.24
2022-09-05T00:37:32.095Z,72.3
2022-09-05T00:37:52.115Z,72.11
2022-09-05T00:38:12.177Z,72.1
2022-09-05T00:38:36.868Z,72.26
2022-09-05T00:38:52.311Z,72.37
2022-09-05T00:39:12.371Z,72.42
2022-09-05T00:39:32.535Z,72.42
2022-09-05T00:40:02.496Z,72.5
2022-09-05T00:40:18.155Z,72.5
2022-09-05T00:40:32.685Z,72.37
2022-09-05T00:40:52.702Z,72.42
2022-09-05T00:41:12.774Z,72.42
2022-09-05T00:41:34.203Z,72.45
2022-09-05T00:41:52.893Z,72.43
2022-09-05T00:42:12.940Z,72.56
2022-09-05T00:42:33.019Z,72.45
2022-09-05T00:42:53.087Z,72.02
2022-09-05T00:43:13.179Z,72.23
2022-09-05T00:43:33.199Z,72.49
2022-09-05T00:43:53.272Z,72.52
2022-09-05T00:44:13.335Z,72.48
2022-09-05T00:44:33.378Z,72.43
2022-09-05T00:44:53.454Z,72.38
2022-09-05T00:45:19.405Z,72.56
2022-09-05T00:45:33.595Z,72.68
2022-09-05T00:45:53.660Z,72.62
2022-09-05T00:46:13.794Z,72.56
2022-09-05T00:46:33.884Z,72.65
2022-09-05T00:46:53.907Z,72.51
2022-09-05T00:47:13.889Z,72.48
2022-09-05T00:47:33.959Z,72.43
2022-09-05T00:47:54.030Z,72.5
2022-09-05T00:48:14.089Z,72.52
2022-09-05T00:48:34.157Z,72.53
2022-09-05T00:48:54.246Z,72.41
2022-09-05T00:49:14.276Z,72.66
2022-09-05T00:49:34.357Z,72.65
2022-09-05T00:49:54.454Z,72.86
2022-09-05T00:50:14.454Z,72.83
2022-09-05T00:50:34.543Z,72.7
2022-09-05T00:50:54.585Z,72.77
2022-09-05T00:51:14.658Z,72.85
2022-09-05T00:51:35.132Z,72.79
2022-09-05T00:51:54.787Z,72.56
2022-09-05T00:52:14.843Z,72.79
2022-09-05T00:52:34.917Z,72.98
2022-09-05T00:53:07.069Z,72.8
2022-09-05T00:53:15.027Z,72.83
2022-09-05T00:53:35.083Z,72.97
2022-09-05T00:53:55.172Z,73.36
2022-09-05T00:54:15.805Z,73.03
2022-09-05T00:54:40.920Z,73.05
2022-09-05T00:54:55.350Z,73.43
2022-09-05T00:55:15.415Z,73.73
2022-09-05T00:55:35.484Z,73.68
2022-09-05T00:55:58.793Z,73.64
2022-09-05T00:56:15.614Z,73.63
2022-09-05T00:56:35.680Z,73.49
2022-09-05T00:56:55.750Z,73.29
2022-09-05T00:57:18.101Z,73.33
2022-09-05T00:57:35.930Z,73.35
2022-09-05T00:57:55.940Z,73.38
2022-09-05T00:58:15.995Z,73.21
2022-09-05T00:58:36.071Z,73.81
2022-09-05T00:58:56.119Z,73.67
2022-09-05T00:59:16.227Z,73.9
2022-09-05T00:59:36.247Z,73.63
2022-09-05T00:59:59.072Z,73.89
2022-09-05T01:00:17.816Z,73.84
2022-09-05T01:00:36.430Z,73.53
2022-09-05T01:00:56.519Z,73.51
2022-09-05T01:01:16.560Z,73.81
2022-09-05T01:01:36.718Z,74.13
2022-09-05T01:01:56.840Z,74.16
2022-09-05T01:02:16.888Z,74.78
2022-09-05T01:02:40.239Z,74.47
2022-09-05T01:02:57.044Z,74.58
2022-09-05T01:03:17.053Z,74.71
2022-09-05T01:03:36.995Z,74.58
2022-09-05T01:03:57.072Z,74.81
2022-09-05T01:04:17.141Z,74.98
2022-09-05T01:04:37.203Z,75.18
2022-09-05T01:04:57.317Z,75.35
2022-09-05T01:05:17.320Z,75.14
2022-09-05T01:05:37.370Z,74.95
2022-09-05T01:05:57.440Z,75.34
2022-09-05T01:06:17.520Z,75.63
2022-09-05T01:06:37.573Z,75.9
2022-09-05T01:06:57.653Z,75.52
2022-09-05T01:07:17.719Z,75.75
2022-09-05T01:07:38.024Z,75.82
2022-09-05T01:07:57.827Z,76.04
2022-09-05T01:08:17.878Z,76.15
2022-09-05T01:08:37.964Z,76.12
2022-09-05T01:08:59.943Z,75.96
2022-09-05T01:09:18.087Z,76.15
2022-09-05T01:09:38.129Z,76.28
2022-09-05T01:09:58.153Z,76.29
2022-09-05T01:10:18.150Z,76.3
2022-09-05T01:10:38.173Z,76.37
2022-09-05T01:10:58.245Z,76.43
2022-09-05T01:11:18.224Z,76.61
2022-09-05T01:11:38.268Z,76.82
2022-09-05T01:11:58.293Z,76.78
2022-09-05T01:12:18.327Z,76.86
2022-09-05T01:12:38.346Z,76.91
2022-09-05T01:12:58.385Z,76.95
2022-09-05T01:13:18.394Z,76.92
2022-09-05T01:13:38.407Z,77.1
2022-09-05T01:13:58.433Z,77.1
2022-09-05T01:14:18.466Z,77.15
2022-09-05T01:14:38.487Z,77.2
2022-09-05T01:14:58.505Z,77.19
2022-09-05T01:15:18.552Z,77.19
2022-09-05T01:15:38.608Z,77.29
2022-09-05T01:15:58.718Z,77.77
2022-09-05T01:16:18.630Z,77.87
2022-09-05T01:16:38.634Z,77.65
2022-09-05T01:16:58.635Z,77.61
2022-09-05T01:17:18.694Z,77.61
2022-09-05T01:17:38.709Z,77.61
2022-09-05T01:18:00.370Z,77.6
2022-09-05T01:18:18.756Z,77.62
2022-09-05T01:18:38.777Z,77.65
2022-09-05T01:18:58.775Z,77.9
2022-09-05T01:19:18.830Z,78.27
2022-09-05T01:19:38.817Z,78.21
2022-09-05T01:20:04.842Z,78.24
2022-09-05T01:20:20.630Z,78.43
2022-09-05T01:20:38.960Z,78.46
2022-09-05T01:20:58.973Z,78.32
2022-09-05T01:21:19.003Z,78.36
2022-09-05T01:21:39.020Z,78.35
2022-09-05T01:21:59.074Z,78.31
2022-09-05T01:22:19.135Z,78.26
2022-09-05T01:22:39.178Z,78.41
2022-09-05T01:22:59.205Z,78.5
2022-09-05T01:23:19.312Z,78.59
2022-09-05T01:23:39.231Z,78.64
2022-09-05T01:23:59.269Z,78.63
2022-09-05T01:24:27.961Z,78.74
2022-09-05T01:24:39.294Z,78.77
2022-09-05T01:24:59.322Z,78.64
2022-09-05T01:25:19.340Z,78.72
2022-09-05T01:25:39.366Z,78.81
2022-09-05T01:25:59.395Z,78.91
2022-09-05T01:26:19.366Z,78.92
2022-09-05T01:26:39.431Z,78.79
2022-09-05T01:26:59.441Z,78.77
2022-09-05T01:27:19.512Z,78.68
2022-09-05T01:28:51.257Z,78.8
2022-09-05T01:29:12.964Z,78.8
2022-09-05T01:29:15.589Z,78.62
2022-09-05T01:29:16.478Z,78.65
2022-09-05T01:29:16.984Z,78.63
2022-09-05T01:29:20.125Z,78.81
2022-09-05T01:29:39.948Z,78.85
2022-09-05T01:30:00.010Z,78.82
2022-09-05T01:30:20.092Z,78.79
2022-09-05T01:30:40.140Z,78.9
2022-09-05T01:31:00.312Z,79.11
2022-09-05T01:31:20.346Z,78.88
2022-09-05T01:31:40.336Z,79.04
2022-09-05T01:32:00.409Z,78.82
2022-09-05T01:32:20.474Z,78.82
2022-09-05T01:32:40.534Z,78.78
2022-09-05T01:33:05.942Z,78.72
2022-09-05T01:33:20.788Z,78.79
2022-09-05T01:33:40.737Z,78.98
2022-09-05T01:34:00.802Z,79.22
2022-09-05T01:34:31.192Z,79.41
2022-09-05T01:34:40.919Z,79.55
2022-09-05T01:35:00.981Z,79.28
2022-09-05T01:35:21.038Z,79.48
2022-09-05T01:35:41.106Z,79.63
2022-09-05T01:36:04.310Z,79.73
2022-09-05T01:36:21.223Z,79.83
2022-09-05T01:36:41.285Z,80.04
2022-09-05T01:37:01.343Z,80.26
2022-09-05T01:37:32.800Z,80.51
2022-09-05T01:37:41.507Z,80.45
2022-09-05T01:38:01.565Z,80.14
2022-09-05T01:38:21.635Z,80.21
2022-09-05T01:38:44.586Z,80.41
2022-09-05T01:40:12.243Z,80.47
2022-09-05T01:40:12.327Z,80.44
2022-09-05T01:40:14.438Z,80.45
2022-09-05T01:40:15.301Z,80.44
2022-09-05T01:40:22.091Z,80.11
2022-09-05T01:40:43.503Z,80.13
2022-09-05T01:41:17.958Z,80.25
2022-09-05T01:41:22.267Z,80.42
2022-09-05T01:41:42.286Z,80.47
2022-09-05T01:42:02.299Z,80.47
2022-09-05T01:42:22.386Z,80.35
2022-09-05T01:42:42.444Z,80.38
2022-09-05T01:43:02.529Z,80.77
2022-09-05T01:43:22.675Z,80.91
2022-09-05T01:43:42.641Z,80.8
2022-09-05T01:44:02.733Z,80.82
2022-09-05T01:44:22.745Z,80.89
2022-09-05T01:44:42.834Z,80.75
2022-09-05T01:45:02.877Z,80.9
2022-09-05T01:45:25.071Z,81.07
2022-09-05T01:45:43.046Z,81.08
2022-09-05T01:46:03.131Z,81.11
2022-09-05T01:46:23.173Z,81.24
2022-09-05T01:46:43.271Z,81.17
2022-09-05T01:47:03.241Z,81.08
2022-09-05T01:47:29.598Z,80.85
2022-09-05T01:47:43.407Z,80.83
2022-09-05T01:48:03.457Z,81.07
2022-09-05T01:48:23.645Z,81.38
2022-09-05T01:48:47.578Z,81.5
2022-09-05T01:49:04.136Z,81.47
2022-09-05T01:49:23.715Z,81.37
2022-09-05T01:49:43.777Z,81.36
2022-09-05T01:50:03.848Z,81.43
2022-09-05T01:50:23.894Z,81.44
2022-09-05T01:50:43.981Z,81.22
2022-09-05T01:51:05.347Z,81.32
2022-09-05T01:51:29.022Z,81.37
2022-09-05T01:51:44.162Z,81.49
2022-09-05T01:52:04.234Z,81.52
2022-09-05T01:52:24.300Z,81.59
2022-09-05T01:52:57.427Z,81.74
2022-09-05T01:53:05.465Z,81.84
2022-09-05T01:53:24.507Z,81.7
2022-09-05T01:53:44.558Z,81.75
2022-09-05T01:54:04.595Z,81.71
2022-09-05T01:54:27.005Z,81.79
2022-09-05T01:54:44.731Z,81.86
2022-09-05T01:55:04.775Z,81.95
2022-09-05T01:55:24.855Z,81.92
2022-09-05T01:56:04.755Z,81.71
2022-09-05T01:56:08.454Z,81.72
2022-09-05T01:56:25.126Z,81.79
2022-09-05T01:56:45.129Z,81.78
2022-09-05T01:57:05.157Z,81.74
2022-09-05T01:57:25.246Z,81.81
2022-09-05T01:57:45.319Z,81.82
2022-09-05T01:58:05.360Z,81.74
2022-09-05T01:58:25.427Z,81.91
2022-09-05T01:58:45.515Z,81.98
2022-09-05T01:59:05.555Z,81.98
2022-09-05T01:59:25.649Z,81.93
2022-09-05T01:59:46.028Z,82.31
2022-09-05T02:00:05.752Z,82.57
2022-09-05T02:00:25.790Z,82.56
2022-09-05T02:00:45.889Z,82.47
2022-09-05T02:01:25.539Z,82.7
2022-09-05T02:01:32.325Z,82.74
2022-09-05T02:01:46.077Z,82.63
2022-09-05T02:02:06.174Z,82.54
2022-09-05T02:02:26.366Z,82.26
2022-09-05T02:02:46.267Z,82.3
2022-09-05T02:03:06.331Z,82.8
2022-09-05T02:03:26.519Z,82.74
2022-09-05T02:03:46.429Z,82.65
2022-09-05T02:04:07.271Z,82.48
2022-09-05T02:04:26.565Z,82.61
2022-09-05T02:04:46.636Z,82.72
2022-09-05T02:05:06.699Z,82.74
2022-09-05T02:05:47.660Z,82.68
2022-09-05T02:05:48.194Z,82.55
2022-09-05T02:06:06.878Z,82.37
2022-09-05T02:06:26.946Z,82.23
2022-09-05T02:06:47.035Z,82.52
2022-09-05T02:07:22.515Z,82.6
2022-09-05T02:07:31.334Z,82.93
2022-09-05T02:07:47.194Z,83.23
2022-09-05T02:08:07.275Z,83.2
2022-09-05T02:08:27.312Z,83.04
2022-09-05T02:08:47.389Z,83.11
2022-09-05T02:09:07.454Z,83.24
2022-09-05T02:09:27.558Z,83.39
2022-09-05T02:09:47.576Z,83.43
2022-09-05T02:10:07.879Z,83.42
2022-09-05T02:10:27.707Z,83.34
2022-09-05T02:10:47.776Z,83.49
2022-09-05T02:11:07.831Z,83.57
2022-09-05T02:11:35.655Z,83.65
2022-09-05T02:11:47.967Z,83.62
2022-09-05T02:12:08.029Z,83.4
2022-09-05T02:12:28.106Z,83.29
2022-09-05T02:13:02.589Z,83.25
2022-09-05T02:13:08.220Z,83.32
2022-09-05T02:13:28.273Z,83.48
2022-09-05T02:13:48.343Z,83.62
2022-09-05T02:14:08.403Z,83.93
2022-09-05T02:14:33.655Z,83.98
2022-09-05T02:14:48.522Z,83.8
2022-09-05T02:15:08.593Z,83.76
2022-09-05T02:15:28.691Z,83.82
2022-09-05T02:15:59.164Z,83.75
2022-09-05T02:16:08.817Z,83.81
2022-09-05T02:16:28.865Z,84.07
2022-09-05T02:16:48.908Z,84.02
2022-09-05T02:17:08.995Z,83.97
2022-09-05T02:17:50.537Z,84
2022-09-05T02:17:51.168Z,83.96
2022-09-05T02:18:09.155Z,84.02
2022-09-05T02:18:29.248Z,84.07
2022-09-05T02:18:49.302Z,83.88
2022-09-05T02:19:09.344Z,83.8
2022-09-05T02:19:29.453Z,83.94
2022-09-05T02:19:49.520Z,84.08
2022-09-05T02:20:09.558Z,84.11
2022-09-05T02:20:29.614Z,84.17
2022-09-05T02:20:49.705Z,84.19
2022-09-05T02:21:09.742Z,84.24
2022-09-05T02:21:29.793Z,84.29
2022-09-05T02:21:56.114Z,84.34
2022-09-05T02:22:09.959Z,84.43
2022-09-05T02:22:30.017Z,84.46
2022-09-05T02:22:50.058Z,84.31
2022-09-05T02:23:24.702Z,84.25
2022-09-05T02:23:41.638Z,84.33
2022-09-05T02:23:50.260Z,84.51
2022-09-05T02:24:10.322Z,84.51
2022-09-05T02:24:30.378Z,84.52
2022-09-05T02:24:50.444Z,84.54
2022-09-05T02:25:23.244Z,84.55
2022-09-05T02:26:01.612Z,84.43
2022-09-05T02:26:02.426Z,84.29
2022-09-05T02:26:10.698Z,84.47
2022-09-05T02:26:30.755Z,84.58
2022-09-05T02:26:50.824Z,84.52
2022-09-05T02:27:10.944Z,84.51
2022-09-05T02:28:04.615Z,84.52
2022-09-05T02:28:05.832Z,84.51
2022-09-05T02:28:11.088Z,84.73
2022-09-05T02:28:31.140Z,84.74
2022-09-05T02:28:51.197Z,84.67
2022-09-05T02:29:11.283Z,84.51
2022-09-05T02:29:31.329Z,84.69
2022-09-05T02:29:51.395Z,84.8
2022-09-05T02:30:11.492Z,84.99
2022-09-05T02:30:31.529Z,85.01
2022-09-05T02:31:19.820Z,84.92
2022-09-05T02:31:20.525Z,84.77
2022-09-05T02:31:31.701Z,84.67
2022-09-05T02:31:51.850Z,84.7
2022-09-05T02:32:11.836Z,84.84
2022-09-05T02:32:31.901Z,84.9
2022-09-05T02:32:51.923Z,84.97
2022-09-05T02:33:11.986Z,84.83
2022-09-05T02:33:32.016Z,84.73
2022-09-05T02:33:52.047Z,84.7
2022-09-05T02:34:12.085Z,84.89
2022-09-05T02:34:32.097Z,84.92
2022-09-05T02:34:52.116Z,84.83
2022-09-05T02:35:13.749Z,84.97
2022-09-05T02:35:32.194Z,84.96
2022-09-05T02:35:52.203Z,84.97
2022-09-05T02:36:12.213Z,84.92
2022-09-05T02:36:32.258Z,84.91
2022-09-05T02:36:52.290Z,84.88
2022-09-05T02:37:12.290Z,85.08
2022-09-05T02:38:18.334Z,84.99
2022-09-05T02:39:09.206Z,85.05
2022-09-05T02:40:06.175Z,85.04
2022-09-05T02:40:12.567Z,85.05
2022-09-05T02:45:00.398Z,85.05
2022-09-05T02:45:00.955Z,85.02
2022-09-05T02:45:01.104Z,84.98
2022-09-05T02:45:02.341Z,85.14
2022-09-05T02:45:03.414Z,85.07
2022-09-05T02:45:03.728Z,85.17
2022-09-05T02:45:06.294Z,85.41
2022-09-05T02:45:10.844Z,85.03
2022-09-05T02:45:10.845Z,84.92
2022-09-05T02:45:11.900Z,85.14
2022-09-05T02:45:12.795Z,84.95
2022-09-05T02:45:14.649Z,85.41
2022-09-05T02:45:16.412Z,85.03
2022-09-05T02:45:16.896Z,85.09
2022-09-05T02:45:17.650Z,84.86
2022-09-05T02:45:19.111Z,85.05
2022-09-05T02:45:19.716Z,84.8
2022-09-05T02:45:20.005Z,84.88
2022-09-05T02:45:21.519Z,85.07
2022-09-05T02:45:28.879Z,85.43
2022-09-05T02:45:33.351Z,85.25
2022-09-05T02:45:53.131Z,85.29
2022-09-05T02:46:13.146Z,85.32
2022-09-05T02:46:33.146Z,85.25
2022-09-05T02:46:53.245Z,85.4
2022-09-05T02:47:13.145Z,85.66
2022-09-05T02:47:33.117Z,85.74
2022-09-05T02:47:53.152Z,85.64
2022-09-05T02:48:15.611Z,85.72
2022-09-05T02:48:33.205Z,85.78
2022-09-05T02:48:53.224Z,85.83
2022-09-05T02:50:09.928Z,85.89
2022-09-05T02:51:01.220Z,85.96
2022-09-05T02:51:48.799Z,85.9
2022-09-05T02:52:43.886Z,85.85
2022-09-05T02:54:09.262Z,85.95
2022-09-05T02:55:08.447Z,85.99
2022-09-05T02:55:57.465Z,85.75
2022-09-05T02:57:18.946Z,85.81
2022-09-05T02:57:24.866Z,85.8
2022-09-05T02:57:25.662Z,85.76
2022-09-05T02:57:26.093Z,85.78
2022-09-05T02:57:28.165Z,85.74
2022-09-05T02:57:29.378Z,85.75
2022-09-05T02:57:30.502Z,85.72
2022-09-05T02:57:33.865Z,85.76
2022-09-05T02:57:34.205Z,85.86
2022-09-05T02:57:34.885Z,85.8
2022-09-05T02:57:35.592Z,86.01
2022-09-05T02:57:35.595Z,85.91
2022-09-05T02:57:35.598Z,85.78
2022-09-05T02:57:35.917Z,85.78
2022-09-05T02:57:36.861Z,85.76
2022-09-05T02:57:37.963Z,85.65
2022-09-05T02:57:39.932Z,85.95
2022-09-05T02:57:40.242Z,85.84
2022-09-05T02:58:06.016Z,85.84
2022-09-05T02:58:08.044Z,85.66
2022-09-05T02:58:15.218Z,85.58
2022-09-05T02:59:05.745Z,85.6
2022-09-05T02:59:09.580Z,85.75
2022-09-05T02:59:14.995Z,85.83
2022-09-05T02:59:36.674Z,85.92
2022-09-05T02:59:55.121Z,86.01
2022-09-05T03:00:15.191Z,86.22
2022-09-05T03:00:35.256Z,86.21
2022-09-05T03:00:55.389Z,86.36
2022-09-05T03:01:15.435Z,86.16
2022-09-05T03:01:35.569Z,86.16
2022-09-05T03:01:55.511Z,86.32
2022-09-05T03:02:24.996Z,86.32
2022-09-05T03:02:35.662Z,86.3
2022-09-05T03:02:55.731Z,86.42
2022-09-05T03:03:15.871Z,86.66
2022-09-05T03:03:35.829Z,86.7
2022-09-05T03:03:55.912Z,86.61
2022-09-05T03:04:15.935Z,86.19
2022-09-05T03:04:36.009Z,86.32
2022-09-05T03:04:59.366Z,86.54
2022-09-05T03:05:16.144Z,86.43
2022-09-05T03:05:36.218Z,86.51
2022-09-05T03:05:56.285Z,86.64
2022-09-05T03:06:16.324Z,86.44
2022-09-05T03:06:36.394Z,86.19
2022-09-05T03:06:56.464Z,86.04
2022-09-05T03:07:16.510Z,86.12
2022-09-05T03:07:36.592Z,86.16
2022-09-05T03:07:56.666Z,86.11
2022-09-05T03:08:16.716Z,86
2022-09-05T03:08:36.783Z,86.03
2022-09-05T03:08:57.008Z,86.15
2022-09-05T03:09:17.687Z,86.26
2022-09-05T03:09:36.966Z,86.07
2022-09-05T03:09:57.012Z,86.06
2022-09-05T03:10:17.091Z,86.03
2022-09-05T03:10:53.611Z,85.89
2022-09-05T03:10:57.233Z,85.88
2022-09-05T03:11:17.280Z,85.94
2022-09-05T03:11:37.335Z,86.12
2022-09-05T03:11:57.408Z,86.2
2022-09-05T03:12:28.406Z,86.27
2022-09-05T03:12:37.570Z,86.44
2022-09-05T03:12:57.604Z,86.45
2022-09-05T03:13:17.659Z,86.55
2022-09-05T03:13:37.729Z,86.62
2022-09-05T03:13:57.780Z,86.86
2022-09-05T03:14:17.843Z,86.93
2022-09-05T03:14:37.901Z,86.9
2022-09-05T03:14:57.976Z,86.86
2022-09-05T03:15:22.913Z,86.91
2022-09-05T03:15:38.078Z,86.79
2022-09-05T03:16:01.311Z,86.58
2022-09-05T03:16:18.311Z,86.62
2022-09-05T03:16:47.107Z,86.71
2022-09-05T03:16:58.415Z,86.7
2022-09-05T03:17:18.443Z,86.95
2022-09-05T03:17:38.500Z,86.99
2022-09-05T03:18:17.983Z,86.99
2022-09-05T03:18:20.366Z,87.01
2022-09-05T03:18:38.701Z,87.08
2022-09-05T03:18:58.749Z,87.11
2022-09-05T03:19:18.800Z,87.17
2022-09-05T03:19:46.763Z,87.2
2022-09-05T03:19:58.932Z,87.23
2022-09-05T03:20:18.982Z,87.16
2022-09-05T03:20:39.066Z,86.97
2022-09-05T03:21:09.007Z,86.87
2022-09-05T03:21:19.170Z,86.8
2022-09-05T03:21:39.248Z,86.96
2022-09-05T03:21:59.318Z,87.1
2022-09-05T03:22:19.388Z,87.15
2022-09-05T03:22:39.439Z,87.21
2022-09-05T03:22:59.511Z,87.17
2022-09-05T03:23:19.576Z,87.05
2022-09-05T03:23:39.635Z,87.06
2022-09-05T03:23:59.722Z,87.09
2022-09-05T03:24:19.761Z,87.18
2022-09-05T03:24:39.811Z,87.23
2022-09-05T03:24:59.883Z,87.21
2022-09-05T03:25:19.948Z,87.11
2022-09-05T03:25:40.037Z,87.05
2022-09-05T03:26:00.103Z,87.01
2022-09-05T03:26:20.162Z,87.2
2022-09-05T03:26:40.225Z,87.43
2022-09-05T03:27:00.286Z,87.49
2022-09-05T03:27:20.345Z,87.49
2022-09-05T03:27:40.425Z,87.44
2022-09-05T03:28:00.482Z,87.3
2022-09-05T03:28:20.709Z,87.35
2022-09-05T03:28:40.588Z,87.53
2022-09-05T03:29:00.664Z,87.51
2022-09-05T03:29:20.750Z,87.55
2022-09-05T03:29:40.767Z,87.59
2022-09-05T03:30:00.875Z,87.65
2022-09-05T03:30:20.904Z,87.59
2022-09-05T03:30:41.037Z,87.48
2022-09-05T03:31:01.079Z,87.4
2022-09-05T03:31:22.711Z,87.45
2022-09-05T03:31:41.189Z,87.51
2022-09-05T03:32:01.236Z,87.64
2022-09-05T03:32:21.283Z,87.71
2022-09-05T03:32:42.293Z,87.63
2022-09-05T03:33:01.413Z,87.54
2022-09-05T03:33:21.448Z,87.36
2022-09-05T03:33:41.542Z,87.27
2022-09-05T03:34:01.588Z,87.52
2022-09-05T03:34:21.676Z,87.68
2022-09-05T03:34:41.725Z,87.79
2022-09-05T03:35:08.288Z,87.66
2022-09-05T03:35:21.856Z,87.72
2022-09-05T03:35:41.925Z,87.59
2022-09-05T03:36:02.008Z,87.33
2022-09-05T03:36:22.063Z,87.2
2022-09-05T03:36:42.149Z,87.29
2022-09-05T03:37:02.194Z,87.46
2022-09-05T03:37:22.251Z,87.62
2022-09-05T03:37:42.296Z,87.57
2022-09-05T03:38:02.368Z,87.54
2022-09-05T03:38:22.428Z,87.67
2022-09-05T03:38:43.338Z,87.78
2022-09-05T03:39:02.543Z,87.87
2022-09-05T03:39:22.705Z,87.97
2022-09-05T03:39:42.752Z,87.94
2022-09-05T03:40:16.265Z,88.07
2022-09-05T03:40:22.865Z,88
2022-09-05T03:40:42.875Z,87.93
2022-09-05T03:41:02.920Z,87.83
2022-09-05T03:41:25.260Z,87.96
2022-09-05T03:41:43.450Z,88.13
2022-09-05T03:42:03.118Z,88.23
2022-09-05T03:42:24.016Z,88.18
2022-09-05T03:42:43.293Z,88.04
2022-09-05T03:43:03.322Z,88.2
2022-09-05T03:43:23.406Z,88.19
2022-09-05T03:43:43.442Z,88.09
2022-09-05T03:44:03.493Z,87.93
2022-09-05T03:44:23.576Z,87.82
2022-09-05T03:44:43.636Z,87.81
2022-09-05T03:45:03.685Z,87.83
2022-09-05T03:45:36.404Z,87.99
2022-09-05T03:45:43.879Z,87.98
2022-09-05T03:46:04.006Z,87.75
2022-09-05T03:46:23.983Z,87.57
2022-09-05T03:46:44.000Z,87.5
2022-09-05T03:47:04.064Z,87.5
2022-09-05T03:47:24.166Z,87.49
2022-09-05T03:47:44.199Z,87.74
2022-09-05T03:48:18.677Z,87.96
2022-09-05T03:48:28.651Z,88.19
2022-09-05T03:48:44.399Z,88.33
2022-09-05T03:49:25.899Z,88.25
2022-09-05T03:50:16.721Z,88.39
2022-09-05T03:52:35.409Z,88.2
2022-09-05T03:52:59.715Z,88.36
2022-09-05T03:54:22.915Z,88.46
2022-09-05T03:57:05.593Z,88.23
2022-09-05T03:57:06.021Z,88.26
2022-09-05T03:57:08.544Z,88.73
2022-09-05T03:57:11.362Z,88.18
2022-09-05T03:57:12.568Z,88.55
2022-09-05T03:57:13.650Z,88.82
2022-09-05T03:57:14.030Z,88.73
2022-09-05T03:57:14.287Z,88.69
2022-09-05T03:57:15.201Z,88.9
2022-09-05T03:57:16.115Z,88.64
2022-09-05T03:57:17.061Z,88.82
2022-09-05T03:57:17.661Z,88.73
2022-09-05T03:57:17.661Z,88.33
2022-09-05T03:57:17.965Z,88.24
2022-09-05T03:57:18.607Z,88.24
2022-09-05T03:57:24.170Z,88.69
2022-09-05T03:57:24.262Z,88.81
2022-09-05T03:57:25.091Z,88.34
2022-09-05T03:57:25.424Z,88.18
2022-09-05T03:57:32.466Z,88.9
2022-09-05T03:57:42.964Z,88.83
2022-09-05T03:57:46.093Z,88.76
2022-09-05T03:58:16.279Z,88.75
2022-09-05T03:58:41.907Z,88.89
2022-09-05T03:59:01.901Z,89
2022-09-05T03:59:06.353Z,89
2022-09-05T03:59:26.407Z,89.01
2022-09-05T03:59:46.468Z,88.95
2022-09-05T04:00:06.535Z,88.93
2022-09-05T04:00:26.604Z,88.91
2022-09-05T04:00:46.665Z,88.8
2022-09-05T04:01:30.681Z,88.67
2022-09-05T04:02:15.234Z,88.68
2022-09-05T04:04:28.859Z,88.67
2022-09-05T04:07:00.401Z,88.9
2022-09-05T04:07:14.945Z,88.87
2022-09-05T04:08:06.182Z,88.85
2022-09-05T04:08:07.246Z,88.85
2022-09-05T04:08:07.435Z,88.77
2022-09-05T04:08:08.727Z,88.78
2022-09-05T04:08:10.804Z,88.82
2022-09-05T04:08:11.592Z,88.91
2022-09-05T04:08:16.468Z,88.7
2022-09-05T04:08:17.690Z,88.72
2022-09-05T04:08:18.541Z,88.7
2022-09-05T04:08:19.683Z,88.71
2022-09-05T04:08:20.391Z,88.82
2022-09-05T04:08:21.887Z,88.78
2022-09-05T04:08:25.940Z,88.47
2022-09-05T04:08:27.806Z,88.57
2022-09-05T04:08:27.806Z,88.61
2022-09-05T04:08:28.657Z,88.76
2022-09-05T04:08:30.795Z,88.8
2022-09-05T04:08:36.979Z,88.82
2022-09-05T04:08:48.835Z,88.93
2022-09-05T04:09:08.431Z,89.13
2022-09-05T04:09:49.664Z,89.19
2022-09-05T04:09:51.483Z,89.39
2022-09-05T04:10:08.589Z,89.42
2022-09-05T04:10:28.683Z,89.24
2022-09-05T04:10:48.924Z,89.06
2022-09-05T04:11:08.712Z,88.93
2022-09-05T04:11:28.709Z,88.9
2022-09-05T04:11:48.760Z,88.99
2022-09-05T04:12:08.847Z,89.03
2022-09-05T04:12:28.889Z,89.05
2022-09-05T04:12:48.958Z,89
2022-09-05T04:13:09.007Z,89.01
2022-09-05T04:13:29.095Z,89.09
2022-09-05T04:13:49.101Z,88.96
2022-09-05T04:14:09.146Z,88.97
2022-09-05T04:14:29.177Z,88.91
2022-09-05T04:14:49.194Z,88.84
2022-09-05T04:15:09.241Z,88.89
2022-09-05T04:15:29.286Z,88.9
2022-09-05T04:15:49.272Z,88.87
2022-09-05T04:16:09.343Z,88.86
2022-09-05T04:16:29.343Z,88.99
2022-09-05T04:16:49.412Z,89.04
2022-09-05T04:17:09.368Z,89.15
2022-09-05T04:17:29.391Z,89.18
2022-09-05T04:17:49.396Z,89
2022-09-05T04:18:09.455Z,88.69
2022-09-05T04:18:33.639Z,88.82
2022-09-05T04:18:49.486Z,88.87
2022-09-05T04:19:09.486Z,88.85
2022-09-05T04:19:29.514Z,88.89